sensor_id;sensor_type;location;lat;lon;timestamp;pressure;altitude;pressure_sealevel;temperature;humidity
43071;BME280;36278;47.952;21.714;2023-02-23T00:00:29;100534.69;;;4.86;77.04
43071;BME280;36278;47.952;21.714;2023-02-23T00:02:59;100533.78;;;4.87;77.22
43071;BME280;36278;47.952;21.714;2023-02-23T00:05:31;100528.59;;;4.86;77.88
43071;BME280;36278;47.952;21.714;2023-02-23T00:07:59;100539.75;;;4.91;77.42
43071;BME280;36278;47.952;21.714;2023-02-23T00:10:26;100539.66;;;4.92;77.02
43071;BME280;36278;47.952;21.714;2023-02-23T00:12:58;100540.31;;;4.97;76.02
43071;BME280;36278;47.952;21.714;2023-02-23T00:15:25;100538.72;;;4.93;76.32
43071;BME280;36278;47.952;21.714;2023-02-23T00:17:55;100544.75;;;4.95;76.56
43071;BME280;36278;47.952;21.714;2023-02-23T00:20:22;100538.66;;;4.95;77.10
43071;BME280;36278;47.952;21.714;2023-02-23T00:22:55;100529.16;;;4.92;76.17
43071;BME280;36278;47.952;21.714;2023-02-23T00:25:21;100530.16;;;4.90;76.73
43071;BME280;36278;47.952;21.714;2023-02-23T00:27:47;100532.84;;;4.88;75.38
43071;BME280;36278;47.952;21.714;2023-02-23T00:30:15;100543.44;;;4.87;76.64
43071;BME280;36278;47.952;21.714;2023-02-23T00:32:44;100540.66;;;4.90;77.17
43071;BME280;36278;47.952;21.714;2023-02-23T00:35:11;100536.28;;;4.90;75.94
43071;BME280;36278;47.952;21.714;2023-02-23T00:37:43;100541.19;;;4.96;76.04
43071;BME280;36278;47.952;21.714;2023-02-23T00:40:10;100534.41;;;4.92;76.31
43071;BME280;36278;47.952;21.714;2023-02-23T00:42:41;100538.72;;;4.93;75.74
43071;BME280;36278;47.952;21.714;2023-02-23T00:45:07;100530.09;;;4.91;75.69
43071;BME280;36278;47.952;21.714;2023-02-23T00:47:37;100537.03;;;4.92;75.58
43071;BME280;36278;47.952;21.714;2023-02-23T00:50:02;100531.03;;;4.90;75.98
43071;BME280;36278;47.952;21.714;2023-02-23T00:52:31;100530.53;;;4.82;76.50
43071;BME280;36278;47.952;21.714;2023-02-23T00:54:57;100526.06;;;4.84;76.32
43071;BME280;36278;47.952;21.714;2023-02-23T00:57:22;100529.91;;;4.77;76.14
43071;BME280;36278;47.952;21.714;2023-02-23T00:59:48;100534.47;;;4.73;76.02
43071;BME280;36278;47.952;21.714;2023-02-23T01:02:13;100539.19;;;4.84;76.49
43071;BME280;36278;47.952;21.714;2023-02-23T01:04:39;100536.94;;;4.76;76.32
43071;BME280;36278;47.952;21.714;2023-02-23T01:07:05;100537.50;;;4.83;77.05
43071;BME280;36278;47.952;21.714;2023-02-23T01:09:31;100538.34;;;4.84;76.68
43071;BME280;36278;47.952;21.714;2023-02-23T01:11:57;100538.91;;;4.90;75.73
43071;BME280;36278;47.952;21.714;2023-02-23T01:14:27;100538.66;;;4.95;75.55
43071;BME280;36278;47.952;21.714;2023-02-23T01:16:53;100533.28;;;4.98;75.22
43071;BME280;36278;47.952;21.714;2023-02-23T01:19:19;100538.16;;;5.05;75.51
43071;BME280;36278;47.952;21.714;2023-02-23T01:21:45;100516.88;;;4.93;75.96
43071;BME280;36278;47.952;21.714;2023-02-23T01:24:11;100536.38;;;5.06;75.00
43071;BME280;36278;47.952;21.714;2023-02-23T01:26:39;100529.41;;;5.05;74.97
43071;BME280;36278;47.952;21.714;2023-02-23T01:29:14;100530.09;;;5.09;75.60
43071;BME280;36278;47.952;21.714;2023-02-23T01:31:42;100533.97;;;5.01;74.51
43071;BME280;36278;47.952;21.714;2023-02-23T01:34:10;100529.72;;;4.99;75.68
43071;BME280;36278;47.952;21.714;2023-02-23T01:36:37;100525.91;;;5.04;75.51
43071;BME280;36278;47.952;21.714;2023-02-23T01:39:09;100528.72;;;5.01;74.89
43071;BME280;36278;47.952;21.714;2023-02-23T01:41:36;100521.75;;;5.00;74.43
43071;BME280;36278;47.952;21.714;2023-02-23T01:44:08;100518.22;;;5.01;74.25
43071;BME280;36278;47.952;21.714;2023-02-23T01:46:52;100523.28;;;5.04;74.08
43071;BME280;36278;47.952;21.714;2023-02-23T01:49:22;100515.56;;;5.01;73.87
43071;BME280;36278;47.952;21.714;2023-02-23T01:51:57;100526.00;;;5.03;74.04
43071;BME280;36278;47.952;21.714;2023-02-23T01:54:26;100514.81;;;4.99;74.13
43071;BME280;36278;47.952;21.714;2023-02-23T01:56:55;100513.13;;;4.98;74.11
43071;BME280;36278;47.952;21.714;2023-02-23T01:59:26;100522.91;;;4.95;73.97
43071;BME280;36278;47.952;21.714;2023-02-23T02:01:54;100512.72;;;4.89;74.31
43071;BME280;36278;47.952;21.714;2023-02-23T02:04:20;100515.03;;;4.95;74.02
43071;BME280;36278;47.952;21.714;2023-02-23T02:06:48;100519.34;;;4.96;73.67
43071;BME280;36278;47.952;21.714;2023-02-23T02:09:19;100517.19;;;4.87;75.45
43071;BME280;36278;47.952;21.714;2023-02-23T02:11:50;100521.44;;;4.89;74.47
43071;BME280;36278;47.952;21.714;2023-02-23T02:14:28;100516.31;;;4.86;75.57
43071;BME280;36278;47.952;21.714;2023-02-23T02:28:54;100519.09;;;4.66;75.06
43071;BME280;36278;47.952;21.714;2023-02-23T02:39:46;100516.75;;;4.60;75.72
43071;BME280;36278;47.952;21.714;2023-02-23T02:48:14;100521.56;;;4.31;76.21
43071;BME280;36278;47.952;21.714;2023-02-23T02:51:00;100506.34;;;4.20;77.22
43071;BME280;36278;47.952;21.714;2023-02-23T02:56:38;100514.38;;;4.17;78.09
43071;BME280;36278;47.952;21.714;2023-02-23T02:59:14;100505.78;;;4.14;77.21
43071;BME280;36278;47.952;21.714;2023-02-23T03:01:58;100511.38;;;4.06;77.41
43071;BME280;36278;47.952;21.714;2023-02-23T03:04:42;100524.97;;;3.96;77.92
43071;BME280;36278;47.952;21.714;2023-02-23T03:07:35;100519.88;;;3.92;77.62
43071;BME280;36278;47.952;21.714;2023-02-23T03:10:54;100526.31;;;3.85;78.10
43071;BME280;36278;47.952;21.714;2023-02-23T03:16:46;100520.75;;;3.73;79.99
43071;BME280;36278;47.952;21.714;2023-02-23T03:19:37;100520.06;;;3.69;79.67
43071;BME280;36278;47.952;21.714;2023-02-23T03:22:31;100521.09;;;3.65;79.82
43071;BME280;36278;47.952;21.714;2023-02-23T03:25:31;100517.03;;;3.58;80.49
43071;BME280;36278;47.952;21.714;2023-02-23T03:28:21;100535.44;;;3.56;81.71
43071;BME280;36278;47.952;21.714;2023-02-23T03:34:16;100533.97;;;3.51;82.06
43071;BME280;36278;47.952;21.714;2023-02-23T03:42:56;100526.47;;;3.42;81.46
43071;BME280;36278;47.952;21.714;2023-02-23T03:45:45;100528.63;;;3.32;81.59
43071;BME280;36278;47.952;21.714;2023-02-23T03:48:32;100527.06;;;3.28;81.94
43071;BME280;36278;47.952;21.714;2023-02-23T03:51:19;100533.09;;;3.30;82.21
43071;BME280;36278;47.952;21.714;2023-02-23T03:54:43;100532.38;;;3.26;83.20
43071;BME280;36278;47.952;21.714;2023-02-23T03:57:30;100535.19;;;3.22;82.92
43071;BME280;36278;47.952;21.714;2023-02-23T04:00:22;100534.25;;;3.23;83.03
43071;BME280;36278;47.952;21.714;2023-02-23T04:03:08;100536.94;;;3.21;83.44
43071;BME280;36278;47.952;21.714;2023-02-23T04:05:55;100533.81;;;3.13;83.31
43071;BME280;36278;47.952;21.714;2023-02-23T04:08:40;100530.25;;;3.14;84.20
43071;BME280;36278;47.952;21.714;2023-02-23T04:11:29;100538.25;;;3.11;84.15
43071;BME280;36278;47.952;21.714;2023-02-23T04:14:22;100526.09;;;3.10;84.04
43071;BME280;36278;47.952;21.714;2023-02-23T04:16:49;100531.25;;;3.12;83.93
43071;BME280;36278;47.952;21.714;2023-02-23T04:19:15;100539.19;;;3.10;84.39
43071;BME280;36278;47.952;21.714;2023-02-23T04:21:40;100535.88;;;3.05;84.73
43071;BME280;36278;47.952;21.714;2023-02-23T04:24:06;100535.88;;;3.05;84.66
43071;BME280;36278;47.952;21.714;2023-02-23T04:26:31;100535.16;;;3.01;84.44
43071;BME280;36278;47.952;21.714;2023-02-23T04:28:57;100542.03;;;3.04;84.18
43071;BME280;36278;47.952;21.714;2023-02-23T04:31:22;100533.50;;;2.99;83.93
43071;BME280;36278;47.952;21.714;2023-02-23T04:33:49;100539.41;;;3.04;84.70
43071;BME280;36278;47.952;21.714;2023-02-23T04:36:14;100541.97;;;3.05;84.47
43071;BME280;36278;47.952;21.714;2023-02-23T04:38:41;100539.41;;;3.04;83.97
43071;BME280;36278;47.952;21.714;2023-02-23T04:41:07;100544.72;;;3.02;84.28
43071;BME280;36278;47.952;21.714;2023-02-23T04:43:32;100535.22;;;3.00;84.75
43071;BME280;36278;47.952;21.714;2023-02-23T04:45:58;100546.72;;;2.96;85.18
43071;BME280;36278;47.952;21.714;2023-02-23T04:48:23;100542.53;;;2.92;84.71
43071;BME280;36278;47.952;21.714;2023-02-23T04:50:53;100550.25;;;2.95;84.66
43071;BME280;36278;47.952;21.714;2023-02-23T04:53:19;100543.19;;;2.97;84.50
43071;BME280;36278;47.952;21.714;2023-02-23T04:55:44;100543.25;;;2.95;84.13
43071;BME280;36278;47.952;21.714;2023-02-23T04:58:10;100542.47;;;2.93;83.91
43071;BME280;36278;47.952;21.714;2023-02-23T05:00:38;100545.03;;;2.95;84.59
43071;BME280;36278;47.952;21.714;2023-02-23T05:03:03;100547.66;;;2.95;85.14
43071;BME280;36278;47.952;21.714;2023-02-23T05:05:29;100546.66;;;2.97;84.22
43071;BME280;36278;47.952;21.714;2023-02-23T05:07:54;100546.78;;;2.94;84.66
43071;BME280;36278;47.952;21.714;2023-02-23T05:10:20;100543.38;;;2.92;85.45
43071;BME280;36278;47.952;21.714;2023-02-23T05:12:45;100538.41;;;2.86;85.50
43071;BME280;36278;47.952;21.714;2023-02-23T05:15:11;100542.53;;;2.92;85.53
43071;BME280;36278;47.952;21.714;2023-02-23T05:17:38;100549.44;;;2.93;85.38
43071;BME280;36278;47.952;21.714;2023-02-23T05:20:07;100545.09;;;2.93;85.67
43071;BME280;36278;47.952;21.714;2023-02-23T05:22:33;100546.72;;;2.96;85.58
43071;BME280;36278;47.952;21.714;2023-02-23T05:24:58;100546.59;;;2.99;85.89
43071;BME280;36278;47.952;21.714;2023-02-23T05:27:24;100552.38;;;3.07;85.01
43071;BME280;36278;47.952;21.714;2023-02-23T05:29:49;100551.72;;;3.02;83.67
43071;BME280;36278;47.952;21.714;2023-02-23T05:32:15;100562.22;;;3.00;84.06
43071;BME280;36278;47.952;21.714;2023-02-23T05:34:40;100550.91;;;3.00;84.55
43071;BME280;36278;47.952;21.714;2023-02-23T05:37:06;100566.59;;;3.00;84.87
43071;BME280;36278;47.952;21.714;2023-02-23T05:39:31;100557.75;;;3.04;84.78
43071;BME280;36278;47.952;21.714;2023-02-23T05:41:57;100566.59;;;3.00;85.09
43071;BME280;36278;47.952;21.714;2023-02-23T05:44:22;100568.38;;;2.99;85.35
43071;BME280;36278;47.952;21.714;2023-02-23T05:46:48;100560.44;;;3.02;84.92
43071;BME280;36278;47.952;21.714;2023-02-23T05:49:14;100564.59;;;3.06;85.08
43071;BME280;36278;47.952;21.714;2023-02-23T05:51:39;100562.06;;;3.05;85.14
43071;BME280;36278;47.952;21.714;2023-02-23T05:54:04;100566.97;;;3.13;84.83
43071;BME280;36278;47.952;21.714;2023-02-23T05:56:30;100567.91;;;3.12;83.85
43071;BME280;36278;47.952;21.714;2023-02-23T05:58:57;100566.78;;;3.17;84.37
43071;BME280;36278;47.952;21.714;2023-02-23T06:01:24;100572.53;;;3.25;84.37
43071;BME280;36278;47.952;21.714;2023-02-23T06:03:50;100576.69;;;3.31;83.91
43071;BME280;36278;47.952;21.714;2023-02-23T06:06:17;100592.47;;;3.29;84.03
43071;BME280;36278;47.952;21.714;2023-02-23T06:08:43;100582.00;;;3.29;84.13
43071;BME280;36278;47.952;21.714;2023-02-23T06:11:09;100593.25;;;3.31;84.87
43071;BME280;36278;47.952;21.714;2023-02-23T06:13:35;100592.38;;;3.31;84.24
43071;BME280;36278;47.952;21.714;2023-02-23T06:16:00;100591.38;;;3.35;83.63
43071;BME280;36278;47.952;21.714;2023-02-23T06:18:27;100596.91;;;3.48;83.69
43071;BME280;36278;47.952;21.714;2023-02-23T06:20:53;100596.75;;;3.52;82.47
43071;BME280;36278;47.952;21.714;2023-02-23T06:23:18;100599.16;;;3.57;83.25
43071;BME280;36278;47.952;21.714;2023-02-23T06:25:45;100602.59;;;3.59;83.06
43071;BME280;36278;47.952;21.714;2023-02-23T06:28:11;100603.81;;;3.71;82.73
43071;BME280;36278;47.952;21.714;2023-02-23T06:30:37;100608.91;;;3.74;82.94
43071;BME280;36278;47.952;21.714;2023-02-23T06:33:04;100609.66;;;3.77;82.32
43071;BME280;36278;47.952;21.714;2023-02-23T06:35:32;100605.13;;;3.81;81.95
43071;BME280;36278;47.952;21.714;2023-02-23T06:37:59;100613.78;;;3.83;82.40
43071;BME280;36278;47.952;21.714;2023-02-23T06:40:25;100617.25;;;3.83;81.18
43071;BME280;36278;47.952;21.714;2023-02-23T06:42:50;100616.34;;;3.84;81.26
43071;BME280;36278;47.952;21.714;2023-02-23T06:45:16;100611.28;;;3.80;82.16
43071;BME280;36278;47.952;21.714;2023-02-23T06:47:44;100613.41;;;3.90;81.69
43071;BME280;36278;47.952;21.714;2023-02-23T06:50:10;100616.78;;;3.94;81.84
43071;BME280;36278;47.952;21.714;2023-02-23T06:52:36;100617.69;;;3.93;80.72
43071;BME280;36278;47.952;21.714;2023-02-23T06:55:02;100594.38;;;3.87;81.58
43071;BME280;36278;47.952;21.714;2023-02-23T06:57:28;100617.06;;;4.07;81.13
43071;BME280;36278;47.952;21.714;2023-02-23T06:59:53;100622.66;;;4.19;80.39
43071;BME280;36278;47.952;21.714;2023-02-23T07:02:19;100608.69;;;4.19;80.42
43071;BME280;36278;47.952;21.714;2023-02-23T07:04:44;100611.03;;;4.25;79.51
43071;BME280;36278;47.952;21.714;2023-02-23T07:07:10;100619.41;;;4.33;79.04
43071;BME280;36278;47.952;21.714;2023-02-23T07:09:35;100617.91;;;4.28;78.40
43071;BME280;36278;47.952;21.714;2023-02-23T07:12:00;100617.13;;;4.26;78.78
43071;BME280;36278;47.952;21.714;2023-02-23T07:14:26;100618.56;;;4.33;78.59
43071;BME280;36278;47.952;21.714;2023-02-23T07:16:53;100617.88;;;4.48;77.77
43071;BME280;36278;47.952;21.714;2023-02-23T07:19:18;100620.00;;;4.59;77.38
43071;BME280;36278;47.952;21.714;2023-02-23T07:21:44;100610.34;;;4.59;76.84
43071;BME280;36278;47.952;21.714;2023-02-23T07:24:11;100614.97;;;4.73;76.34
43071;BME280;36278;47.952;21.714;2023-02-23T07:26:37;100610.56;;;4.73;75.53
43071;BME280;36278;47.952;21.714;2023-02-23T07:29:05;100614.72;;;4.77;74.66
43071;BME280;36278;47.952;21.714;2023-02-23T07:31:30;100618.00;;;4.83;75.05
43071;BME280;36278;47.952;21.714;2023-02-23T07:33:56;100609.84;;;4.89;74.89
43071;BME280;36278;47.952;21.714;2023-02-23T07:36:22;100610.09;;;5.01;73.75
43071;BME280;36278;47.952;21.714;2023-02-23T07:38:48;100616.13;;;5.03;73.44
43071;BME280;36278;47.952;21.714;2023-02-23T07:41:13;100614.78;;;5.14;73.78
43071;BME280;36278;47.952;21.714;2023-02-23T07:43:39;100618.66;;;5.24;72.30
43071;BME280;36278;47.952;21.714;2023-02-23T07:46:05;100610.00;;;5.22;72.32
43071;BME280;36278;47.952;21.714;2023-02-23T07:48:31;100606.19;;;5.27;71.18
43071;BME280;36278;47.952;21.714;2023-02-23T07:50:57;100609.53;;;5.31;71.16
43071;BME280;36278;47.952;21.714;2023-02-23T07:53:23;100612.78;;;5.36;71.13
43071;BME280;36278;47.952;21.714;2023-02-23T07:55:59;100616.31;;;5.35;70.44
43071;BME280;36278;47.952;21.714;2023-02-23T07:58:26;100607.94;;;5.46;69.69
43071;BME280;36278;47.952;21.714;2023-02-23T08:00:52;100613.03;;;5.49;70.76
43071;BME280;36278;47.952;21.714;2023-02-23T08:03:18;100618.13;;;5.69;69.52
43071;BME280;36278;47.952;21.714;2023-02-23T08:05:44;100611.41;;;5.81;69.01
43071;BME280;36278;47.952;21.714;2023-02-23T08:08:09;100612.00;;;5.86;68.93
43071;BME280;36278;47.952;21.714;2023-02-23T08:10:35;100618.63;;;5.95;68.85
43071;BME280;36278;47.952;21.714;2023-02-23T08:13:02;100620.06;;;6.00;67.90
43071;BME280;36278;47.952;21.714;2023-02-23T08:15:27;100598.34;;;5.97;66.49
43071;BME280;36278;47.952;21.714;2023-02-23T08:17:53;100619.09;;;6.18;66.36
43071;BME280;36278;47.952;21.714;2023-02-23T08:20:19;100613.38;;;6.28;66.01
43071;BME280;36278;47.952;21.714;2023-02-23T08:22:44;100623.00;;;6.44;65.83
43071;BME280;36278;47.952;21.714;2023-02-23T08:25:10;100625.38;;;6.49;65.57
43071;BME280;36278;47.952;21.714;2023-02-23T08:27:36;100610.34;;;6.51;65.66
43071;BME280;36278;47.952;21.714;2023-02-23T08:30:03;100628.09;;;6.63;65.23
43071;BME280;36278;47.952;21.714;2023-02-23T08:32:32;100615.88;;;6.62;65.75
43071;BME280;36278;47.952;21.714;2023-02-23T08:34:59;100625.72;;;6.74;65.67
43071;BME280;36278;47.952;21.714;2023-02-23T08:37:27;100623.94;;;6.75;65.95
43071;BME280;36278;47.952;21.714;2023-02-23T08:39:53;100621.25;;;6.77;65.66
43071;BME280;36278;47.952;21.714;2023-02-23T08:42:19;100623.59;;;6.97;65.19
43071;BME280;36278;47.952;21.714;2023-02-23T08:44:45;100626.00;;;7.01;65.38
43071;BME280;36278;47.952;21.714;2023-02-23T08:47:10;100624.47;;;6.97;64.55
43071;BME280;36278;47.952;21.714;2023-02-23T08:49:36;100626.13;;;7.14;64.57
43071;BME280;36278;47.952;21.714;2023-02-23T08:52:02;100625.59;;;7.39;63.99
43071;BME280;36278;47.952;21.714;2023-02-23T08:54:27;100611.72;;;7.51;63.11
43071;BME280;36278;47.952;21.714;2023-02-23T08:56:55;100618.41;;;7.57;61.78
43071;BME280;36278;47.952;21.714;2023-02-23T08:59:22;100616.75;;;7.40;61.84
43071;BME280;36278;47.952;21.714;2023-02-23T09:01:47;100624.06;;;7.51;61.45
43071;BME280;36278;47.952;21.714;2023-02-23T09:04:13;100616.16;;;7.51;61.34
43071;BME280;36278;47.952;21.714;2023-02-23T09:06:39;100620.72;;;7.77;59.73
43071;BME280;36278;47.952;21.714;2023-02-23T09:09:05;100621.13;;;7.85;59.87
43071;BME280;36278;47.952;21.714;2023-02-23T09:11:31;100626.59;;;7.97;58.94
43071;BME280;36278;47.952;21.714;2023-02-23T09:13:57;100625.56;;;8.13;58.59
43071;BME280;36278;47.952;21.714;2023-02-23T09:16:23;100627.06;;;7.89;59.75
43071;BME280;36278;47.952;21.714;2023-02-23T09:18:48;100628.00;;;7.88;58.94
43071;BME280;36278;47.952;21.714;2023-02-23T09:21:17;100618.03;;;7.93;59.25
43071;BME280;36278;47.952;21.714;2023-02-23T09:23:45;100619.81;;;7.93;58.64
43071;BME280;36278;47.952;21.714;2023-02-23T09:26:12;100616.53;;;8.03;57.53
43071;BME280;36278;47.952;21.714;2023-02-23T09:28:38;100622.38;;;8.08;57.91
43071;BME280;36278;47.952;21.714;2023-02-23T09:31:07;100611.53;;;8.13;58.08
43071;BME280;36278;47.952;21.714;2023-02-23T09:33:34;100620.81;;;8.49;56.55
43071;BME280;36278;47.952;21.714;2023-02-23T09:36:03;100616.25;;;8.79;55.86
43071;BME280;36278;47.952;21.714;2023-02-23T09:38:29;100620.88;;;8.90;56.24
43071;BME280;36278;47.952;21.714;2023-02-23T09:40:56;100612.59;;;9.09;54.91
43071;BME280;36278;47.952;21.714;2023-02-23T09:46:13;100618.19;;;9.31;54.02
43071;BME280;36278;47.952;21.714;2023-02-23T09:48:44;100617.19;;;9.46;53.63
43071;BME280;36278;47.952;21.714;2023-02-23T09:51:15;100611.59;;;9.64;52.30
43071;BME280;36278;47.952;21.714;2023-02-23T09:53:49;100622.28;;;9.62;52.61
43071;BME280;36278;47.952;21.714;2023-02-23T09:58:49;100615.97;;;9.90;52.00
43071;BME280;36278;47.952;21.714;2023-02-23T10:06:44;100617.69;;;10.04;52.44
43071;BME280;36278;47.952;21.714;2023-02-23T10:09:17;100615.34;;;9.87;51.89
43071;BME280;36278;47.952;21.714;2023-02-23T10:11:51;100621.09;;;10.19;51.93
43071;BME280;36278;47.952;21.714;2023-02-23T10:20:26;100615.75;;;10.57;51.86
43071;BME280;36278;47.952;21.714;2023-02-23T10:22:56;100613.53;;;10.63;49.97
43071;BME280;36278;47.952;21.714;2023-02-23T10:25:30;100606.53;;;10.75;49.66
43071;BME280;36278;47.952;21.714;2023-02-23T10:27:59;100614.19;;;10.91;49.84
43071;BME280;36278;47.952;21.714;2023-02-23T10:30:28;100601.06;;;10.89;48.91
43071;BME280;36278;47.952;21.714;2023-02-23T10:33:06;100601.13;;;10.77;49.45
43071;BME280;36278;47.952;21.714;2023-02-23T10:35:36;100594.00;;;10.77;50.55
43071;BME280;36278;47.952;21.714;2023-02-23T10:38:02;100602.13;;;10.87;49.60
43071;BME280;36278;47.952;21.714;2023-02-23T10:40:32;100599.00;;;10.69;50.63
43071;BME280;36278;47.952;21.714;2023-02-23T10:43:01;100594.47;;;10.58;50.61
43071;BME280;36278;47.952;21.714;2023-02-23T10:45:28;100581.63;;;10.65;50.05
43071;BME280;36278;47.952;21.714;2023-02-23T10:48:17;100592.66;;;10.95;50.43
43071;BME280;36278;47.952;21.714;2023-02-23T10:50:45;100581.66;;;11.13;49.72
43071;BME280;36278;47.952;21.714;2023-02-23T10:53:25;100580.97;;;11.22;48.47
43071;BME280;36278;47.952;21.714;2023-02-23T10:56:26;100578.69;;;11.52;48.57
43071;BME280;36278;47.952;21.714;2023-02-23T10:58:58;100570.59;;;11.43;47.79
43071;BME280;36278;47.952;21.714;2023-02-23T11:01:36;100571.34;;;11.56;48.15
43071;BME280;36278;47.952;21.714;2023-02-23T11:04:24;100571.41;;;11.78;47.56
43071;BME280;36278;47.952;21.714;2023-02-23T11:07:25;100558.81;;;12.04;47.79
43071;BME280;36278;47.952;21.714;2023-02-23T11:10:40;100550.75;;;12.06;47.22
43071;BME280;36278;47.952;21.714;2023-02-23T11:12:40;100556.28;;;12.03;47.21
43071;BME280;36278;47.952;21.714;2023-02-23T11:18:18;100549.16;;;12.03;47.71
43071;BME280;36278;47.952;21.714;2023-02-23T11:20:44;100546.25;;;12.29;46.87
43071;BME280;36278;47.952;21.714;2023-02-23T11:25:52;100539.78;;;12.87;45.59
43071;BME280;36278;47.952;21.714;2023-02-23T11:28:34;100536.16;;;12.77;45.71
43071;BME280;36278;47.952;21.714;2023-02-23T11:31:03;100526.47;;;12.87;45.52
43071;BME280;36278;47.952;21.714;2023-02-23T11:33:33;100521.81;;;13.01;46.08
43071;BME280;36278;47.952;21.714;2023-02-23T11:39:00;100529.59;;;12.93;45.23
43071;BME280;36278;47.952;21.714;2023-02-23T11:41:26;100525.75;;;12.85;45.54
43071;BME280;36278;47.952;21.714;2023-02-23T11:43:59;100522.72;;;12.90;46.22
43071;BME280;36278;47.952;21.714;2023-02-23T11:46:28;100527.34;;;12.77;46.06
43071;BME280;36278;47.952;21.714;2023-02-23T11:53:58;100521.31;;;12.75;45.97
43071;BME280;36278;47.952;21.714;2023-02-23T11:56:25;100515.09;;;12.97;46.34
43071;BME280;36278;47.952;21.714;2023-02-23T12:03:59;100513.41;;;13.49;44.63
43071;BME280;36278;47.952;21.714;2023-02-23T12:06:37;100514.91;;;13.41;44.95
43071;BME280;36278;47.952;21.714;2023-02-23T12:09:27;100515.34;;;13.26;46.03
43071;BME280;36278;47.952;21.714;2023-02-23T12:12:05;100505.75;;;13.34;45.17
43071;BME280;36278;47.952;21.714;2023-02-23T12:14:47;100512.38;;;13.61;44.70
43071;BME280;36278;47.952;21.714;2023-02-23T12:17:23;100501.22;;;13.97;43.91
43071;BME280;36278;47.952;21.714;2023-02-23T12:19:58;100502.28;;;13.85;43.66
43071;BME280;36278;47.952;21.714;2023-02-23T12:22:47;100501.28;;;13.77;44.98
43071;BME280;36278;47.952;21.714;2023-02-23T12:25:35;100499.50;;;13.66;44.84
43071;BME280;36278;47.952;21.714;2023-02-23T12:33:49;100486.19;;;14.27;43.63
43071;BME280;36278;47.952;21.714;2023-02-23T12:36:39;100482.63;;;14.17;44.36
43071;BME280;36278;47.952;21.714;2023-02-23T12:39:30;100479.69;;;13.59;44.70
43071;BME280;36278;47.952;21.714;2023-02-23T12:44:45;100483.41;;;13.98;43.91
43071;BME280;36278;47.952;21.714;2023-02-23T12:47:34;100481.25;;;14.22;43.82
43071;BME280;36278;47.952;21.714;2023-02-23T12:50:32;100474.06;;;14.53;42.79
43071;BME280;36278;47.952;21.714;2023-02-23T12:58:42;100467.91;;;14.82;42.98
43071;BME280;36278;47.952;21.714;2023-02-23T13:01:34;100470.28;;;14.46;43.60
43071;BME280;36278;47.952;21.714;2023-02-23T13:04:22;100463.56;;;14.62;42.74
43071;BME280;36278;47.952;21.714;2023-02-23T13:17:59;100470.44;;;13.84;44.47
43071;BME280;36278;47.952;21.714;2023-02-23T13:20:39;100459.72;;;13.95;44.56
43071;BME280;36278;47.952;21.714;2023-02-23T13:26:13;100463.56;;;13.81;45.71
43071;BME280;36278;47.952;21.714;2023-02-23T13:29:30;100470.41;;;13.74;45.02
43071;BME280;36278;47.952;21.714;2023-02-23T13:32:00;100471.47;;;13.92;44.69
43071;BME280;36278;47.952;21.714;2023-02-23T13:34:32;100466.66;;;13.77;45.11
43071;BME280;36278;47.952;21.714;2023-02-23T13:37:03;100468.34;;;13.57;45.40
43071;BME280;36278;47.952;21.714;2023-02-23T13:39:34;100466.47;;;13.48;45.73
43071;BME280;36278;47.952;21.714;2023-02-23T13:42:07;100464.66;;;13.69;45.59
43071;BME280;36278;47.952;21.714;2023-02-23T13:44:57;100461.50;;;13.54;46.85
43071;BME280;36278;47.952;21.714;2023-02-23T13:50:06;100458.78;;;12.91;46.64
43071;BME280;36278;47.952;21.714;2023-02-23T13:52:41;100458.63;;;12.93;46.45
43071;BME280;36278;47.952;21.714;2023-02-23T13:58:10;100463.16;;;12.81;46.69
43071;BME280;36278;47.952;21.714;2023-02-23T14:00:39;100453.09;;;13.17;45.98
43071;BME280;36278;47.952;21.714;2023-02-23T14:03:21;100454.09;;;12.84;46.86
43071;BME280;36278;47.952;21.714;2023-02-23T14:05:51;100454.16;;;12.94;47.29
43071;BME280;36278;47.952;21.714;2023-02-23T14:08:36;100457.03;;;13.02;47.12
43071;BME280;36278;47.952;21.714;2023-02-23T14:11:04;100452.94;;;12.98;47.00
43071;BME280;36278;47.952;21.714;2023-02-23T14:13:39;100447.69;;;13.07;46.69
43071;BME280;36278;47.952;21.714;2023-02-23T14:16:17;100447.38;;;13.01;47.01
43071;BME280;36278;47.952;21.714;2023-02-23T14:19:10;100442.41;;;12.75;47.58
43071;BME280;36278;47.952;21.714;2023-02-23T14:21:49;100448.63;;;12.85;47.60
43071;BME280;36278;47.952;21.714;2023-02-23T14:24:27;100443.22;;;12.87;47.48
43071;BME280;36278;47.952;21.714;2023-02-23T14:29:40;100445.78;;;12.34;48.25
43071;BME280;36278;47.952;21.714;2023-02-23T14:34:59;100442.56;;;12.30;48.65
43071;BME280;36278;47.952;21.714;2023-02-23T14:39:54;100445.59;;;12.03;49.71
43071;BME280;36278;47.952;21.714;2023-02-23T14:42:24;100437.41;;;12.06;50.74
43071;BME280;36278;47.952;21.714;2023-02-23T14:44:54;100442.25;;;11.90;50.24
43071;BME280;36278;47.952;21.714;2023-02-23T14:47:40;100440.66;;;11.88;50.29
43071;BME280;36278;47.952;21.714;2023-02-23T14:50:12;100431.50;;;11.92;50.26
43071;BME280;36278;47.952;21.714;2023-02-23T14:52:42;100432.44;;;12.02;50.15
43071;BME280;36278;47.952;21.714;2023-02-23T14:57:42;100429.06;;;11.89;49.79
43071;BME280;36278;47.952;21.714;2023-02-23T15:02:51;100430.97;;;12.20;49.47
43071;BME280;36278;47.952;21.714;2023-02-23T15:05:19;100427.28;;;12.44;49.61
43071;BME280;36278;47.952;21.714;2023-02-23T15:07:47;100423.44;;;12.80;48.67
43071;BME280;36278;47.952;21.714;2023-02-23T15:10:37;100422.00;;;13.17;47.28
43071;BME280;36278;47.952;21.714;2023-02-23T15:13:26;100418.84;;;13.44;46.61